Nearby METAR Reports

 

KIND - Indianapolis, Indiana, USA
Distance from station: SW 6mi, 9km
Updated: Oct 22 2020 9:54am
Partly Cloudy
Partly Cloudy
 Wind from S
Wind: S 8 mph , 13 km/h
Temperature: 63°F , 17°C
Dew Point: 61°F , 16°C
Humidity: 94%
Barometer: 30.14 inHg , 1020.7 hPa
Clouds: Partly Cloudy
Visibility: 10 miles , 16 km
Cloud details: Few Clouds 5000 ft
Partly Cloudy 25000 ft
2020/10/22 13:54 KIND 221354Z 18007KT 10SM FEW050 SCT250 17/16 A3014 RMK AO2 SLP204 T01720156 $
KEYE - Indianapolis, Indiana, USA
Distance from station: NW 5mi, 8km
Updated: Oct 22 2020 9:53am
Clear
Clear
 Wind from SSE
Wind: SSE 3 mph , 6 km/h
Temperature: 63°F , 17°C
Dew Point: 59°F , 15°C
Humidity: 88%
Barometer: 30.14 inHg , 1020.7 hPa
Clouds: Clear
Visibility: 10 miles , 16 km
2020/10/22 13:53 KEYE 221353Z AUTO 16003KT 10SM CLR 17/15 A3014 RMK AO2 SLP203 T01670150
 
KTYQ - Indianapolis Exc, Indiana, USA
Distance from station: N 17mi, 28km
Updated: Oct 22 2020 10:15am
Partly Cloudy
Partly Cloudy
 Wind from S
Wind: S 9 mph , 15 km/h
Temperature: 64°F , 18°C
Dew Point: 61°F , 16°C
Humidity: 88%
Barometer: 30.14 inHg , 1020.7 hPa
Clouds: Partly Cloudy
Visibility: 10 miles , 16 km
Cloud details: Partly Cloudy 5500 ft
2020/10/22 14:15 KTYQ 221415Z AUTO 19008KT 10SM SCT055 18/16 A3014 RMK AO2 T01750161
KGEZ - Shelbyville, Indiana, USA
Distance from station: ESE 27mi, 43km
Updated: Oct 22 2020 9:53am
Clear
Clear
 Wind from S
Wind: S 10 mph , 17 km/h
Temperature: 66°F , 19°C
Dew Point: 59°F , 15°C
Humidity: 78%
Barometer: 30.16 inHg , 1021.3 hPa
Clouds: Clear
Visibility: 10 miles , 16 km
2020/10/22 13:53 KGEZ 221353Z AUTO 18009KT 10SM CLR 19/15 A3016 RMK AO2 SLP209 T01890150
 
KAID - Anderson Municip, Indiana, USA
Distance from station: NE 40mi, 64km
Updated: Oct 22 2020 9:35am
Mist, Clear
Mist, Clear
 Wind from S
Wind: S 6 mph , 9 km/h
Temperature: 63°F , 17°C
Dew Point: 59°F , 15°C
Humidity: 88%
Barometer: 30.16 inHg , 1021.3 hPa
Summary: Mist
Clouds: Clear
Visibility: 3 miles , 5 km
2020/10/22 13:35 KAID 221335Z AUTO 18005KT 3SM BR CLR 17/15 A3016 RMK AO2 T01700152
KBAK - Columbus/Balkala, Indiana, USA
Distance from station: SSE 40mi, 64km
Updated: Oct 22 2020 9:45am
Clear
Clear
 Wind from S
Wind: S 5 mph , 7 km/h
Temperature: 59°F , 15°C
Dew Point: 57°F , 14°C
Humidity: 94%
Barometer: 30.18 inHg , 1022 hPa
Clouds: Clear
Visibility: 7 miles , 11 km
2020/10/22 13:45 KBAK 221345Z 17004KT 7SM CLR 15/14 A3018
 
KBMG - Bloomington, Indiana, USA
Distance from station: SSW 48mi, 78km
Updated: Oct 22 2020 9:53am
Clear
Clear
 Wind from SSE
Wind: SSE 5 mph , 7 km/h
Temperature: 64°F , 18°C
Dew Point: 61°F , 16°C
Humidity: 88%
Barometer: 30.15 inHg , 1021 hPa
Clouds: Clear
Visibility: 10 miles , 16 km
2020/10/22 13:53 KBMG 221353Z 15004KT 10SM CLR 18/16 A3015 RMK AO2 SLP207 T01830156
KOKK - Kokomo, Indiana, USA
Distance from station: N 53mi, 85km
Updated: Oct 22 2020 9:56am
Clear
Clear
 Wind from S
Wind: S 8 mph , 13 km/h
Temperature: 61°F , 16°C
Dew Point: 61°F , 16°C
Humidity: 100%
Barometer: 30.14 inHg , 1020.7 hPa
Clouds: Clear
Visibility: 10 miles , 16 km
2020/10/22 13:56 KOKK 221356Z AUTO 18007KT 10SM CLR 16/16 A3014 RMK AO2 SLP204 T01610161